Pembroke, NC

6:06 PM EDT on July 27, 2016 (GMT -0400)
Hunter's Run | | Change Station
Active Advisory: Heat Advisory

Elev 175 ft 34.66 °N, 79.18 °W | Updated 10 minutes ago

Clear
Clear
96.4 °F
Feels Like 110 °F
N
1.0
Wind Variable Wind from WNW
Gusts 9.0 mph

Today
High -- | Low -- °F
--% Chance of Precip.
Yesterday
High -- | Low -- °F
Precip. -- in
Pressure 29.91 in
Visibility 10.0 miles
Clouds Clear
Heat Index 110 °F
Dew Point 76 °F
Humidity 52%
Rainfall 0.00 in
Snow Depth Not available.
6:23 AM 8:22 PM
Last Quarter, 39% visible
METAR KLBT 272154Z AUTO 23009KT 10SM CLR 35/22 A2991 RMK AO2 SLP127 T03500217
Pressure 29.91 in
Visibility 10.0 miles
Clouds Clear
Heat Index 110 °F
Dew Point 76 °F
Humidity 52%
Rainfall 0.00 in
Snow Depth Not available.
6:23 AM 8:22 PM
Last Quarter, 39% visible
METAR KLBT 272154Z AUTO 23009KT 10SM CLR 35/22 A2991 RMK AO2 SLP127 T03500217

10-Day Weather Forecast

Almanac

Astronomy

Jul. 27, 2016 Rise Set
Actual Time
Civil Twilight
Nautical Twilight
Astronomical Twilight
Moon
Length of Visible Light
Length of Day
Tomorrow will be .
, % of the Moon is Illuminated

Today's Extremes

State Highs State Lows

Community

WunderPhotos

Upload Photos

1,927,944 photos uploaded!

WunderBlog® & News

Nearby

Air Quality

  Air Quality AQ Index Pollutant
Not available.

Snow Depth

Station Depth Elevation

Earthquake Activity

City Distance Mag. Time & Date
Minimum magnitude displayed is 2.5.

Coastal Water Temperatures

Place Temperature

Stations

Nearby Weather Stations

Station Location Temp. Windchill Dew Point Humidity Wind Precip. Elev Updated Type
                   

Watches & Warnings

Heat Advisory
Issued: 12:02 PM EDT Jul. 27, 2016 – National Weather Service

... Heat advisory remains in effect until 7 PM EDT this evening...

* heat index values... up to 109 due to temperatures in the mid
90s... and dewpoints in the lower 70s.

* Timing... the highest sustained heat index values will occur in
the mid to late afternoon hours.

* Impacts... the combination of hot temperatures and high
relative humidity will result with the increasing frequency of
heat related illnesses across the advised area. If you suspect
someone having a heat stroke... call 911 immediately.

Precautionary/preparedness actions...

To reduce the risk of heat illnesses during outdoor work... the
occupational safety and health administration recommends
scheduling frequent rest breaks in shaded or air conditioned
environments... and to drink plenty of non-alcoholic fluids.

Never leave children or pets unattended in a closed up vehicle
during a hot Summers day. In just 15 minutes... temperatures
inside the vehicle could easily surpass 140 degrees.

Outdoor livestock and pets will also need plenty of shade... a
well ventilated environment... and plenty of accessible drinking
water.



5